Time;durP1;ratioP1;P1;durP2;ratioP2;P2;SDS_P1;SDS_P2;PMS_P1;PMS_P2;Temp;Humidity;BMP_temperature;BMP_pressure;BME280_temperature;BME280_humidity;BME280_pressure;Samples;Min_cycle;Max_cycle;Signal;HPM_P1;HPM_P2
2023/05/29 00:00:20;;;;;;;9.20;5.55;;;;;;;12.89;100.00;102128.56;5090166;28;20044;-67
2023/05/29 00:02:46;;;;;;;10.63;5.70;;;;;;;12.80;100.00;102121.25;5090840;28;20315;-67
2023/05/29 00:05:12;;;;;;;10.52;5.32;;;;;;;12.79;100.00;102132.44;5089371;28;20099;-66
2023/05/29 00:07:38;;;;;;;11.77;5.72;;;;;;;12.76;100.00;102134.94;5090021;28;20080;-67
2023/05/29 00:10:06;;;;;;;9.35;4.65;;;;;;;12.73;100.00;102143.50;5086608;28;20023;-67
2023/05/29 00:12:31;;;;;;;8.70;5.50;;;;;;;12.66;100.00;102136.25;5089953;28;20024;-67
2023/05/29 00:14:57;;;;;;;13.65;5.70;;;;;;;12.58;100.00;102141.09;5090730;28;20130;-66
2023/05/29 00:17:23;;;;;;;10.65;5.13;;;;;;;12.48;100.00;102139.78;5090795;28;20016;-67
2023/05/29 00:19:48;;;;;;;10.98;5.40;;;;;;;12.46;100.00;102140.56;5089864;28;20032;-66
2023/05/29 00:22:13;;;;;;;12.38;5.03;;;;;;;12.45;100.00;102139.66;5089177;28;20536;-67
2023/05/29 00:24:39;;;;;;;11.50;5.03;;;;;;;12.41;100.00;102145.53;5090428;28;20518;-67
2023/05/29 00:27:04;;;;;;;11.70;4.97;;;;;;;12.34;100.00;102149.56;5090274;28;20048;-67
2023/05/29 00:29:30;;;;;;;11.80;5.05;;;;;;;12.30;100.00;102145.06;5090256;28;20023;-67
2023/05/29 00:31:56;;;;;;;11.13;4.80;;;;;;;12.22;100.00;102154.19;5087926;28;20043;-66
2023/05/29 00:34:23;;;;;;;10.23;4.43;;;;;;;12.15;100.00;102155.63;5071029;28;20056;-66
2023/05/29 00:36:48;;;;;;;9.48;3.80;;;;;;;12.16;100.00;102156.53;5073511;28;20025;-67
2023/05/29 00:39:14;;;;;;;12.13;3.70;;;;;;;12.08;100.00;102153.53;5088189;28;20376;-67
2023/05/29 00:41:39;;;;;;;11.40;3.90;;;;;;;12.07;100.00;102162.16;5086748;28;20180;-66
2023/05/29 00:44:04;;;;;;;13.90;4.18;;;;;;;12.03;100.00;102157.63;5076392;28;20024;-66
2023/05/29 00:46:31;;;;;;;11.80;3.95;;;;;;;12.05;100.00;102163.78;5090362;28;20203;-67
2023/05/29 00:48:58;;;;;;;9.85;4.30;;;;;;;11.95;100.00;102160.75;5089986;28;20027;-67
2023/05/29 00:51:25;;;;;;;10.93;3.90;;;;;;;11.90;100.00;102157.03;5090206;28;20024;-67
2023/05/29 00:53:52;;;;;;;10.48;4.35;;;;;;;11.84;100.00;102164.53;5087944;28;20012;-66
2023/05/29 00:56:18;;;;;;;10.60;3.22;;;;;;;11.76;100.00;102165.03;5089018;28;20031;-66
2023/05/29 00:58:43;;;;;;;11.90;4.13;;;;;;;11.72;100.00;102164.84;5077727;28;20095;-66
2023/05/29 01:01:09;;;;;;;13.70;3.72;;;;;;;11.70;100.00;102174.25;5089182;28;20025;-66
2023/05/29 01:03:35;;;;;;;9.02;3.05;;;;;;;11.66;100.00;102165.41;5089279;28;20671;-67
2023/05/29 01:06:01;;;;;;;11.38;3.80;;;;;;;11.59;100.00;102171.13;5089709;28;20153;-66
2023/05/29 01:08:26;;;;;;;10.93;3.22;;;;;;;11.56;100.00;102173.59;5077025;28;20024;-66
2023/05/29 01:11:00;;;;;;;10.05;3.35;;;;;;;11.49;100.00;102181.09;5071435;28;20027;-66
2023/05/29 01:13:30;;;;;;;15.45;4.05;;;;;;;11.46;100.00;102178.31;5083128;28;20020;-67
2023/05/29 01:16:04;;;;;;;19.10;4.57;;;;;;;11.45;100.00;102184.34;5082305;28;20020;-67
2023/05/29 01:18:51;;;;;;;10.98;3.70;;;;;;;11.40;100.00;102185.81;5077846;28;20611;-66
2023/05/29 01:21:48;;;;;;;8.27;3.85;;;;;;;11.35;100.00;102190.75;5084984;28;20027;-67
2023/05/29 01:24:37;;;;;;;8.82;2.47;;;;;;;11.29;100.00;102186.16;5068650;28;20016;-66
2023/05/29 01:27:10;;;;;;;11.45;3.20;;;;;;;11.29;100.00;102182.66;5070592;28;20030;-66
2023/05/29 01:29:38;;;;;;;10.35;3.05;;;;;;;11.23;100.00;102183.25;5070740;28;20025;-66
2023/05/29 01:32:05;;;;;;;15.32;4.57;;;;;;;11.20;100.00;102188.28;5071256;28;20437;-67
2023/05/29 01:34:30;;;;;;;10.10;3.35;;;;;;;11.14;100.00;102185.34;5071154;28;20023;-66
2023/05/29 01:36:56;;;;;;;11.98;3.08;;;;;;;11.14;100.00;102195.75;5070562;28;20028;-66
2023/05/29 01:39:22;;;;;;;13.75;4.03;;;;;;;11.11;100.00;102193.91;5088638;28;20103;-66
2023/05/29 01:41:48;;;;;;;12.18;3.65;;;;;;;11.07;100.00;102188.44;5077060;28;20767;-66
2023/05/29 01:44:13;;;;;;;10.77;3.10;;;;;;;11.00;100.00;102193.34;5068714;28;20573;-66
2023/05/29 01:46:41;;;;;;;8.30;3.10;;;;;;;11.00;100.00;102187.25;5081883;28;20020;-66
2023/05/29 01:49:07;;;;;;;14.00;3.00;;;;;;;10.99;100.00;102185.47;5069687;28;20052;-66
2023/05/29 01:51:32;;;;;;;11.55;3.05;;;;;;;10.96;100.00;102185.28;5068746;28;20108;-67
2023/05/29 01:54:00;;;;;;;17.02;3.70;;;;;;;10.91;100.00;102190.25;5069079;28;20012;-66
2023/05/29 01:56:27;;;;;;;11.98;3.22;;;;;;;10.88;100.00;102187.50;5069354;28;20036;-66
2023/05/29 01:58:54;;;;;;;13.23;3.75;;;;;;;10.88;100.00;102187.50;5075397;28;20024;-66
2023/05/29 02:01:21;;;;;;;9.70;2.95;;;;;;;10.84;100.00;102185.56;5088367;28;20058;-66
2023/05/29 02:03:47;;;;;;;13.10;2.83;;;;;;;10.80;100.00;102182.81;5074768;28;20046;-66
2023/05/29 02:06:12;;;;;;;11.23;3.30;;;;;;;10.77;100.00;102180.06;5075121;28;20104;-66
2023/05/29 02:08:37;;;;;;;12.32;3.22;;;;;;;10.77;100.00;102177.47;5068548;28;20460;-66
2023/05/29 02:11:03;;;;;;;8.98;3.10;;;;;;;10.74;100.00;102182.47;5068208;28;20462;-66
2023/05/29 02:13:28;;;;;;;9.75;2.92;;;;;;;10.70;100.00;102180.56;5088183;28;20476;-66
2023/05/29 02:15:53;;;;;;;10.98;2.75;;;;;;;10.69;100.00;102187.44;5075042;28;20025;-66
2023/05/29 02:18:19;;;;;;;15.40;3.40;;;;;;;10.71;100.00;102186.59;5068768;28;20077;-66
2023/05/29 02:20:45;;;;;;;8.45;3.03;;;;;;;10.65;100.00;102185.47;5067956;28;20042;-66
2023/05/29 02:23:11;;;;;;;11.73;3.05;;;;;;;10.62;100.00;102187.00;5067275;28;20023;-66
2023/05/29 02:25:36;;;;;;;8.98;3.22;;;;;;;10.59;100.00;102192.03;5068532;28;20016;-66
2023/05/29 02:28:02;;;;;;;11.52;3.08;;;;;;;10.56;100.00;102191.06;5081559;28;20137;-66
2023/05/29 02:30:28;;;;;;;10.80;2.70;;;;;;;10.55;100.00;102196.16;5068571;28;20028;-66
2023/05/29 02:32:53;;;;;;;9.65;2.42;;;;;;;10.51;100.00;102196.78;5067690;28;20031;-66
2023/05/29 02:35:22;;;;;;;11.48;3.33;;;;;;;10.44;100.00;102195.53;5068804;28;20328;-66
2023/05/29 02:37:47;;;;;;;11.38;2.78;;;;;;;10.38;100.00;102195.22;5068540;28;20476;-66
2023/05/29 02:40:12;;;;;;;8.45;2.88;;;;;;;10.31;100.00;102205.25;5068678;28;20080;-66
2023/05/29 02:42:38;;;;;;;12.23;3.05;;;;;;;10.30;100.00;102200.88;5081104;28;20046;-66
2023/05/29 02:45:04;;;;;;;8.60;2.58;;;;;;;10.29;100.00;102206.84;5080690;28;20069;-66
2023/05/29 02:47:29;;;;;;;9.27;2.58;;;;;;;10.27;100.00;102207.59;5086419;28;20071;-66
2023/05/29 02:49:54;;;;;;;11.18;3.22;;;;;;;10.24;100.00;102208.31;5087593;28;20051;-66
2023/05/29 02:52:19;;;;;;;12.50;3.38;;;;;;;10.22;100.00;102204.72;5087065;28;20550;-66
2023/05/29 02:54:45;;;;;;;11.90;3.17;;;;;;;10.21;100.00;102208.13;5087966;28;20024;-66
2023/05/29 02:57:10;;;;;;;13.68;3.63;;;;;;;10.18;100.00;102207.97;5086256;28;20032;-66
2023/05/29 02:59:36;;;;;;;11.90;2.85;;;;;;;10.15;100.00;102208.69;5074860;28;20020;-66
2023/05/29 03:02:02;;;;;;;11.63;3.22;;;;;;;10.14;100.00;102212.09;5073327;28;20127;-66
2023/05/29 03:04:27;;;;;;;13.30;2.70;;;;;;;10.12;100.00;102215.38;5087794;28;20498;-66
2023/05/29 03:06:53;;;;;;;12.82;2.95;;;;;;;10.12;100.00;102210.22;5086968;28;20020;-66
2023/05/29 03:09:19;;;;;;;9.95;3.72;;;;;;;10.08;100.00;102212.63;5075438;28;20479;-66
2023/05/29 03:11:44;;;;;;;17.75;3.70;;;;;;;10.08;100.00;102212.63;5080117;28;20056;-66
2023/05/29 03:14:10;;;;;;;10.82;3.20;;;;;;;10.04;100.00;102213.25;5080197;28;20027;-66
2023/05/29 03:16:35;;;;;;;12.60;2.50;;;;;;;10.00;100.00;102216.47;5081445;28;20032;-66
2023/05/29 03:19:01;;;;;;;11.00;3.30;;;;;;;9.94;100.00;102205.78;5080103;28;20032;-66
2023/05/29 03:21:26;;;;;;;12.30;3.15;;;;;;;9.90;100.00;102209.00;5086488;28;20031;-66
2023/05/29 03:23:52;;;;;;;14.80;3.45;;;;;;;9.86;100.00;102213.09;5085066;28;20491;-66
2023/05/29 03:26:17;;;;;;;13.23;3.05;;;;;;;9.83;100.00;102215.53;5079728;28;20514;-66
2023/05/29 03:28:42;;;;;;;14.32;3.63;;;;;;;9.80;100.00;102205.00;5077937;28;20028;-66
2023/05/29 03:31:08;;;;;;;11.38;2.97;;;;;;;9.79;100.00;102217.06;5079590;28;20041;-66
2023/05/29 03:33:34;;;;;;;11.80;3.05;;;;;;;9.79;100.00;102214.47;5078161;28;20031;-66
2023/05/29 03:36:00;;;;;;;11.52;3.03;;;;;;;9.74;100.00;102210.72;5086003;28;20027;-66
2023/05/29 03:38:25;;;;;;;13.52;2.85;;;;;;;9.73;100.00;102216.72;5097395;28;20466;-66
2023/05/29 03:40:50;;;;;;;14.32;3.15;;;;;;;9.68;100.00;102219.03;5087072;28;20051;-66
2023/05/29 03:43:16;;;;;;;12.75;2.50;;;;;;;9.70;100.00;102222.59;5075326;28;20081;-66
2023/05/29 03:45:41;;;;;;;9.43;2.65;;;;;;;9.68;100.00;102223.28;5084706;28;20425;-66
2023/05/29 03:48:06;;;;;;;15.75;3.90;;;;;;;9.67;100.00;102219.84;5087926;28;20032;-66
2023/05/29 03:50:31;;;;;;;13.55;3.38;;;;;;;9.67;100.00;102219.84;5083436;28;20070;-66
2023/05/29 03:52:57;;;;;;;12.85;2.75;;;;;;;9.69;100.00;102217.34;5077637;28;20027;-66
2023/05/29 03:55:22;;;;;;;13.40;3.00;;;;;;;9.71;100.00;102223.50;5070657;28;20021;-66
2023/05/29 03:57:47;;;;;;;12.77;2.97;;;;;;;9.70;100.00;102237.22;5078284;28;20020;-66
2023/05/29 04:00:13;;;;;;;8.82;3.05;;;;;;;9.68;100.00;102228.47;5087599;28;20161;-66
2023/05/29 04:02:39;;;;;;;10.93;2.92;;;;;;;9.67;100.00;102231.88;5087009;28;20052;-66
2023/05/29 04:05:06;;;;;;;10.88;3.42;;;;;;;9.68;100.00;102237.13;5070241;28;20174;-66
2023/05/29 04:07:32;;;;;;;12.73;2.70;;;;;;;9.65;100.00;102236.97;5068503;28;20089;-66
2023/05/29 04:09:57;;;;;;;11.43;3.28;;;;;;;9.65;100.00;102236.97;5070872;28;20419;-66
2023/05/29 04:12:22;;;;;;;17.73;3.67;;;;;;;9.67;100.00;102243.13;5071428;28;20028;-66
2023/05/29 04:14:47;;;;;;;18.52;3.20;;;;;;;9.65;100.00;102236.06;5071585;28;20042;-66
2023/05/29 04:17:13;;;;;;;20.42;4.07;;;;;;;9.65;100.00;102246.41;5082264;28;20369;-66
2023/05/29 04:19:38;;;;;;;12.70;3.17;;;;;;;9.67;100.00;102250.00;5073288;28;20024;-66
2023/05/29 04:22:03;;;;;;;15.00;4.20;;;;;;;9.69;100.00;102257.06;5071313;28;20035;-66
2023/05/29 04:24:31;;;;;;;8.48;2.65;;;;;;;9.66;100.00;102254.28;5070828;28;20564;-66
2023/05/29 04:26:57;;;;;;;15.05;3.42;;;;;;;9.65;100.00;102256.78;5071177;28;20267;-66
2023/05/29 04:29:22;;;;;;;17.60;3.35;;;;;;;9.66;100.00;102259.44;5071810;28;20032;-66
2023/05/29 04:31:48;;;;;;;16.77;3.25;;;;;;;9.71;100.00;102246.78;5082318;28;20432;-66
2023/05/29 04:34:16;;;;;;;12.05;3.03;;;;;;;9.73;100.00;102259.00;5072393;28;20438;-66
2023/05/29 04:36:43;;;;;;;11.73;3.38;;;;;;;9.77;100.00;102254.91;5081938;28;20028;-66
2023/05/29 04:39:08;;;;;;;12.20;3.00;;;;;;;9.79;100.00;102255.88;5089167;28;20051;-65
2023/05/29 04:41:35;;;;;;;18.48;3.22;;;;;;;9.80;100.00;102261.97;5090069;28;20081;-66
2023/05/29 04:44:01;;;;;;;11.30;2.50;;;;;;;9.79;100.00;102271.41;5071744;28;20106;-66
2023/05/29 04:46:26;;;;;;;15.02;3.30;;;;;;;9.79;100.00;102261.06;5081138;28;20023;-66
2023/05/29 04:48:55;;;;;;;14.77;2.90;;;;;;;9.82;100.00;102271.59;5090306;28;20027;-66
2023/05/29 04:51:21;;;;;;;10.75;2.70;;;;;;;9.85;100.00;102261.44;5090731;28;20046;-66
2023/05/29 04:53:48;;;;;;;15.70;2.92;;;;;;;9.89;100.00;102265.09;5072464;28;20048;-66
2023/05/29 04:56:14;;;;;;;10.57;2.70;;;;;;;9.95;100.00;102264.53;5071330;28;20024;-66
2023/05/29 04:58:40;;;;;;;15.88;3.53;;;;;;;10.02;100.00;102263.22;5071779;28;20350;-66
2023/05/29 05:01:07;;;;;;;16.23;3.08;;;;;;;10.05;100.00;102263.38;5070978;28;20373;-66
2023/05/29 05:03:34;;;;;;;9.40;2.63;;;;;;;10.11;100.00;102265.44;5070524;28;20052;-65
2023/05/29 05:06:03;;;;;;;11.07;2.67;;;;;;;10.15;100.00;102270.84;5081045;28;20403;-66
2023/05/29 05:08:29;;;;;;;11.77;3.42;;;;;;;10.19;100.00;102261.56;5076732;28;20031;-66
2023/05/29 05:10:55;;;;;;;13.00;2.85;;;;;;;10.22;100.00;102261.72;5078351;28;20610;-66
2023/05/29 05:13:20;;;;;;;10.52;2.80;;;;;;;10.27;100.00;102259.41;5075302;28;20073;-66
2023/05/29 05:15:45;;;;;;;15.27;3.67;;;;;;;10.27;100.00;102262.88;5084180;28;20028;-66
2023/05/29 05:18:11;;;;;;;13.25;3.15;;;;;;;10.29;100.00;102263.84;5080432;28;20052;-66
2023/05/29 05:20:36;;;;;;;9.75;2.67;;;;;;;10.35;100.00;102283.13;5083991;28;20267;-66
2023/05/29 05:23:02;;;;;;;15.00;3.10;;;;;;;10.37;100.00;102269.47;5077825;28;20024;-66
2023/05/29 05:25:27;;;;;;;14.07;3.45;;;;;;;10.42;100.00;102277.50;5070754;28;20361;-66
2023/05/29 05:27:53;;;;;;;11.02;3.22;;;;;;;10.51;100.00;102283.22;5076387;28;20133;-66
2023/05/29 05:30:18;;;;;;;11.75;2.80;;;;;;;10.57;100.00;102286.19;5070596;28;20033;-66
2023/05/29 05:32:43;;;;;;;11.80;3.15;;;;;;;10.60;100.00;102290.63;5073695;28;20024;-66
2023/05/29 05:35:11;;;;;;;16.02;3.55;;;;;;;10.68;100.00;102291.06;5074105;28;20036;-66
2023/05/29 05:37:36;;;;;;;15.20;3.85;;;;;;;10.72;100.00;102295.56;5075051;28;20020;-66
2023/05/29 05:40:02;;;;;;;13.85;3.15;;;;;;;10.77;100.00;102288.97;5070175;28;20024;-66
2023/05/29 05:42:28;;;;;;;11.32;4.10;;;;;;;10.85;100.00;102297.16;5075739;28;20043;-66
2023/05/29 05:44:53;;;;;;;10.55;3.05;;;;;;;10.93;100.00;102297.56;5069208;28;20032;-66
2023/05/29 05:47:19;;;;;;;14.27;3.35;;;;;;;11.04;100.00;102298.16;5084827;28;20039;-66
2023/05/29 05:49:44;;;;;;;12.93;3.08;;;;;;;11.11;100.00;102296.75;5080242;28;20237;-66
2023/05/29 05:52:10;;;;;;;17.55;3.55;;;;;;;11.14;100.00;102289.13;5068380;28;20119;-65
2023/05/29 05:54:35;;;;;;;11.73;3.47;;;;;;;11.15;100.00;102291.81;5071497;28;20032;-66
2023/05/29 05:57:00;;;;;;;12.88;3.45;;;;;;;11.21;100.00;102291.25;5081488;28;20104;-66
2023/05/29 05:59:26;;;;;;;17.35;3.55;;;;;;;11.29;100.00;102289.97;5074874;28;20075;-66
2023/05/29 06:01:51;;;;;;;14.25;3.13;;;;;;;11.39;100.00;102295.59;5068609;28;20536;-66
2023/05/29 06:04:18;;;;;;;11.25;3.28;;;;;;;11.46;100.00;102287.31;5071770;28;20518;-66
2023/05/29 06:06:44;;;;;;;14.40;3.15;;;;;;;11.59;100.00;102282.75;5066500;28;20086;-66
2023/05/29 06:09:10;;;;;;;10.38;2.90;;;;;;;11.74;100.00;102288.75;5068959;28;20464;-66
2023/05/29 06:11:37;;;;;;;9.32;3.15;;;;;;;11.86;100.00;102284.97;5073084;28;20468;-66
2023/05/29 06:14:02;;;;;;;13.48;3.75;;;;;;;11.93;100.00;102293.94;5067125;28;20099;-66
2023/05/29 06:16:28;;;;;;;12.90;2.72;;;;;;;12.03;100.00;102300.50;5075972;28;20119;-66
2023/05/29 06:18:53;;;;;;;11.68;2.72;;;;;;;12.06;99.17;102308.44;5076145;28;20028;-66
2023/05/29 06:21:19;;;;;;;10.82;3.35;;;;;;;12.21;100.00;102301.47;5076170;28;20031;-66
2023/05/29 06:23:44;;;;;;;11.82;2.70;;;;;;;12.31;97.81;102302.78;5075844;28;20035;-66
2023/05/29 06:26:11;;;;;;;12.38;3.28;;;;;;;12.37;96.29;102312.59;5074845;28;20029;-66
2023/05/29 06:28:36;;;;;;;12.50;3.83;;;;;;;12.43;95.58;102306.81;5074496;28;20494;-66
2023/05/29 06:31:02;;;;;;;16.67;3.63;;;;;;;12.46;95.08;102312.13;5076810;28;20118;-66
2023/05/29 06:33:27;;;;;;;9.93;3.10;;;;;;;12.51;93.64;102320.16;5077876;28;20027;-66
2023/05/29 06:35:52;;;;;;;11.70;2.95;;;;;;;12.64;95.34;102316.44;5076577;28;20088;-66
2023/05/29 06:38:17;;;;;;;15.88;3.60;;;;;;;12.78;94.08;102319.66;5077051;28;20479;-66
2023/05/29 06:40:43;;;;;;;11.20;2.80;;;;;;;12.90;92.70;102319.38;5074115;28;20044;-66
2023/05/29 06:43:09;;;;;;;11.98;2.60;;;;;;;13.02;92.04;102321.63;5064304;28;20020;-66
2023/05/29 06:45:34;;;;;;;12.63;2.80;;;;;;;13.12;90.20;102320.31;5073931;28;20058;-66
2023/05/29 06:48:00;;;;;;;8.35;2.55;;;;;;;13.29;89.70;102318.50;5065763;28;20036;-66
2023/05/29 06:50:25;;;;;;;13.13;3.10;;;;;;;13.32;88.37;102316.00;5075366;28;20020;-66
2023/05/29 06:52:50;;;;;;;15.00;2.70;;;;;;;13.38;88.28;102324.09;5065046;28;20096;-66
2023/05/29 06:55:16;;;;;;;9.68;2.85;;;;;;;13.45;86.86;102320.06;5068257;28;20434;-66
2023/05/29 06:57:41;;;;;;;11.50;2.60;;;;;;;13.55;85.82;102332.69;5067225;28;20036;-66
2023/05/29 07:00:09;;;;;;;13.43;3.15;;;;;;;13.56;83.38;102316.22;5068269;28;20035;-66
2023/05/29 07:02:34;;;;;;;12.23;3.97;;;;;;;13.58;84.49;102324.13;5066801;28;20626;-66
2023/05/29 07:04:59;;;;;;;8.77;2.47;;;;;;;13.73;85.36;102322.97;5071764;28;20532;-66
2023/05/29 07:07:25;;;;;;;9.25;2.28;;;;;;;13.89;82.60;102328.00;5084855;28;20468;-66
2023/05/29 07:09:50;;;;;;;11.45;2.88;;;;;;;14.08;82.46;102317.47;5072168;28;20026;-66
2023/05/29 07:12:16;;;;;;;10.77;2.95;;;;;;;14.16;80.53;102326.47;5067717;28;20028;-66
2023/05/29 07:14:41;;;;;;;13.98;3.28;;;;;;;14.24;78.58;102326.81;5072211;28;20551;-66
2023/05/29 07:17:06;;;;;;;7.55;2.67;;;;;;;14.38;78.19;102325.66;5070109;28;20498;-66
2023/05/29 07:19:34;;;;;;;9.13;2.90;;;;;;;14.53;78.01;102319.25;5070261;28;20240;-66
2023/05/29 07:22:00;;;;;;;7.78;2.30;;;;;;;14.73;79.06;102313.94;5070139;28;20032;-66
2023/05/29 07:24:25;;;;;;;7.55;2.25;;;;;;;14.88;75.91;102322.38;5065621;28;20023;-66
2023/05/29 07:26:50;;;;;;;9.90;2.95;;;;;;;15.09;76.07;102318.75;5067039;28;20509;-66
2023/05/29 07:29:17;;;;;;;8.13;2.92;;;;;;;15.23;74.97;102332.34;5067344;28;20027;-66
2023/05/29 07:31:44;;;;;;;9.27;2.28;;;;;;;15.43;73.84;102320.84;5070485;28;20162;-66
2023/05/29 07:34:10;;;;;;;10.25;2.30;;;;;;;15.52;73.42;102328.09;5077765;28;20104;-66
2023/05/29 07:36:35;;;;;;;9.20;2.60;;;;;;;15.67;71.75;102327.75;5073100;28;20032;-66
2023/05/29 07:39:01;;;;;;;11.02;2.30;;;;;;;15.69;69.87;102333.91;5079614;28;20077;-66
2023/05/29 07:41:26;;;;;;;9.13;3.55;;;;;;;15.74;71.93;102324.50;5070176;28;20036;-66
2023/05/29 07:43:52;;;;;;;8.20;1.92;;;;;;;15.80;70.57;102327.31;5072112;28;20067;-66
2023/05/29 07:46:19;;;;;;;10.32;2.45;;;;;;;15.68;70.16;102339.97;5078828;28;20527;-66
2023/05/29 07:48:46;;;;;;;9.35;2.40;;;;;;;15.74;70.57;102340.16;5080385;28;20349;-66
2023/05/29 07:51:11;;;;;;;8.27;2.25;;;;;;;15.80;67.53;102336.88;5077789;28;20020;-66
2023/05/29 07:53:37;;;;;;;9.20;2.35;;;;;;;15.97;68.33;102340.09;5086562;28;20030;-66
2023/05/29 07:56:02;;;;;;;10.32;2.33;;;;;;;16.14;69.04;102334.53;5107311;28;20011;-66
2023/05/29 07:58:28;;;;;;;11.05;2.13;;;;;;;16.28;66.35;102338.50;5102806;28;20028;-67
2023/05/29 08:00:53;;;;;;;7.57;2.85;;;;;;;16.53;68.00;102339.25;5096731;28;20067;-66
2023/05/29 08:03:18;;;;;;;7.72;2.33;;;;;;;16.50;67.14;102339.16;5091236;28;20134;-66
2023/05/29 08:05:44;;;;;;;9.57;2.35;;;;;;;16.58;69.85;102339.41;5085556;28;20106;-66
2023/05/29 08:08:12;;;;;;;10.45;2.60;;;;;;;16.43;67.15;102345.06;5083522;28;20077;-66
2023/05/29 08:10:38;;;;;;;11.27;3.15;;;;;;;16.63;69.82;102344.78;5078612;28;20037;-66
2023/05/29 08:13:03;;;;;;;8.15;2.25;;;;;;;16.89;67.35;102355.16;5080879;28;20420;-66
2023/05/29 08:15:28;;;;;;;9.50;2.47;;;;;;;17.14;67.58;102348.06;5080352;28;20027;-66
2023/05/29 08:17:54;;;;;;;11.15;2.40;;;;;;;17.39;64.94;102344.41;5081597;28;20400;-66
2023/05/29 08:20:20;;;;;;;9.82;2.75;;;;;;;17.59;64.51;102346.66;5081147;28;20051;-66
2023/05/29 08:22:45;;;;;;;9.05;2.33;;;;;;;17.55;60.85;102343.91;5077213;28;20024;-66
2023/05/29 08:25:11;;;;;;;8.10;2.28;;;;;;;17.77;61.92;102345.38;5080975;28;20032;-66
2023/05/29 08:27:36;;;;;;;7.75;2.50;;;;;;;17.93;61.69;102344.03;5079454;28;20555;-66
2023/05/29 08:30:03;;;;;;;9.80;2.60;;;;;;;17.97;60.99;102352.88;5087589;28;20020;-66
2023/05/29 08:32:28;;;;;;;7.65;2.05;;;;;;;18.13;62.01;102351.53;5078349;28;20024;-66
2023/05/29 08:34:54;;;;;;;6.80;2.30;;;;;;;18.12;57.83;102354.97;5087707;28;20035;-66
2023/05/29 08:37:19;;;;;;;7.72;2.13;;;;;;;17.97;59.21;102361.59;5084786;28;20460;-66
2023/05/29 08:39:45;;;;;;;7.15;1.95;;;;;;;18.07;58.08;102356.59;5082818;28;20032;-66
2023/05/29 08:42:17;;;;;;;9.20;2.25;;;;;;;18.12;57.96;102352.34;5082315;28;20330;-66
2023/05/29 08:44:46;;;;;;;6.90;2.40;;;;;;;18.22;57.10;102349.13;5099320;28;20111;-68
2023/05/29 08:47:18;;;;;;;6.65;1.98;;;;;;;18.20;57.65;102353.47;5085401;28;20042;-68
2023/05/29 08:49:45;;;;;;;6.40;2.08;;;;;;;18.28;56.62;102356.25;5069290;28;20024;-68
2023/05/29 08:52:19;;;;;;;9.40;2.25;;;;;;;18.44;56.96;102354.03;5082802;28;20066;-68
2023/05/29 08:54:46;;;;;;;7.63;2.08;;;;;;;18.60;56.68;102360.50;5079503;28;20028;-68
2023/05/29 08:57:12;;;;;;;9.15;2.35;;;;;;;18.78;56.60;102365.25;5068720;28;20117;-68
2023/05/29 08:59:41;;;;;;;9.07;2.65;;;;;;;18.74;54.90;102368.69;5068012;28;20078;-68
2023/05/29 09:02:07;;;;;;;9.40;2.65;;;;;;;18.87;55.68;102358.44;5087738;28;20068;-68
2023/05/29 09:04:32;;;;;;;10.02;2.97;;;;;;;18.99;55.74;102368.31;5087931;28;20493;-68
2023/05/29 09:06:58;;;;;;;6.50;2.35;;;;;;;19.14;54.08;102376.53;5094204;28;20024;-68
2023/05/29 09:09:26;;;;;;;8.80;2.45;;;;;;;19.27;54.05;102374.16;5109543;28;20100;-68
2023/05/29 09:11:53;;;;;;;6.50;2.08;;;;;;;19.32;52.67;102362.88;5075752;28;20020;-68
2023/05/29 09:14:39;;;;;;;6.75;2.13;;;;;;;19.35;53.51;102372.59;5101037;28;20019;-68
2023/05/29 09:17:06;;;;;;;7.40;2.40;;;;;;;19.32;52.88;102372.50;5098489;28;20098;-68
2023/05/29 09:19:31;;;;;;;7.93;1.77;;;;;;;19.27;53.58;102367.16;5103582;28;20218;-68
2023/05/29 09:22:02;;;;;;;7.30;2.53;;;;;;;19.32;54.21;102375.13;5089789;28;20476;-68
2023/05/29 09:24:28;;;;;;;6.30;2.15;;;;;;;19.46;54.30;102372.81;5071750;28;20028;-68
2023/05/29 09:26:53;;;;;;;8.77;2.47;;;;;;;19.43;53.41;102368.34;5069750;28;20020;-68
2023/05/29 09:29:19;;;;;;;8.15;2.50;;;;;;;19.31;55.92;102370.75;5073049;28;20166;-69
2023/05/29 09:31:47;;;;;;;8.43;2.80;;;;;;;19.47;53.87;102376.28;5089384;28;20032;-68
2023/05/29 09:34:12;;;;;;;7.63;2.33;;;;;;;19.53;50.97;102373.78;5107649;28;20080;-68
2023/05/29 09:36:38;;;;;;;6.75;2.03;;;;;;;19.63;53.07;102359.06;5098074;28;20040;-68
2023/05/29 09:39:04;;;;;;;10.48;2.53;;;;;;;19.73;53.32;102357.50;5089409;28;20019;-68
2023/05/29 09:41:31;;;;;;;9.05;1.98;;;;;;;19.82;52.13;102364.66;5088843;28;21069;-68
2023/05/29 09:43:56;;;;;;;7.03;2.50;;;;;;;19.77;51.19;102354.06;5105577;28;20391;-68
2023/05/29 09:46:22;;;;;;;7.50;2.00;;;;;;;19.85;52.43;102362.09;5098730;28;20032;-68
2023/05/29 09:48:48;;;;;;;5.20;1.98;;;;;;;19.99;53.51;102360.56;5072519;28;20035;-68
2023/05/29 09:51:23;;;;;;;7.25;2.47;;;;;;;20.15;53.05;102355.59;5068389;28;20161;-68
2023/05/29 09:53:50;;;;;;;7.18;2.20;;;;;;;20.20;49.71;102363.56;5068809;28;20095;-68
2023/05/29 09:56:17;;;;;;;8.00;2.58;;;;;;;20.25;50.65;102356.63;5068505;28;20058;-68
2023/05/29 09:58:47;;;;;;;6.30;1.60;;;;;;;20.24;51.93;102368.00;5068635;28;20435;-68
2023/05/29 10:01:15;;;;;;;8.18;2.30;;;;;;;20.26;51.17;102363.66;5080991;28;20035;-68
2023/05/29 10:03:42;;;;;;;5.60;1.90;;;;;;;20.08;51.19;102370.41;5075467;28;20090;-68
2023/05/29 10:06:11;;;;;;;6.22;2.15;;;;;;;20.04;51.76;102358.91;5089487;28;20460;-68
2023/05/29 10:08:40;;;;;;;7.18;2.10;;;;;;;20.00;51.17;102361.47;5075790;28;20437;-68
2023/05/29 10:11:09;;;;;;;6.72;2.10;;;;;;;19.98;51.47;102365.81;5076247;28;20024;-68
2023/05/29 10:13:38;;;;;;;6.45;2.33;;;;;;;20.03;52.30;102362.41;5083082;28;20058;-68
2023/05/29 10:16:07;;;;;;;5.55;2.17;;;;;;;20.09;51.13;102356.41;5069289;28;20103;-68
2023/05/29 10:18:42;;;;;;;10.10;2.63;;;;;;;20.20;51.35;102355.69;5069130;28;20107;-68
2023/05/29 10:21:12;;;;;;;7.68;1.98;;;;;;;20.28;50.96;102348.78;5069859;28;20024;-68
2023/05/29 10:23:38;;;;;;;6.13;2.17;;;;;;;20.28;52.24;102356.66;5068979;28;20467;-68
2023/05/29 10:26:18;;;;;;;6.25;2.53;;;;;;;20.29;51.92;102363.72;5068436;28;20017;-68
2023/05/29 10:29:26;;;;;;;7.78;2.35;;;;;;;20.29;48.80;102358.47;5080203;28;20024;-68
2023/05/29 10:32:01;;;;;;;6.72;2.08;;;;;;;20.41;50.67;102341.97;5067431;28;20040;-68
2023/05/29 10:34:41;;;;;;;6.35;2.08;;;;;;;20.48;51.84;102353.44;5074601;28;20103;-68
2023/05/29 10:37:20;;;;;;;7.45;2.15;;;;;;;20.48;51.14;102342.91;5074901;28;20028;-69
2023/05/29 10:39:45;;;;;;;9.70;2.63;;;;;;;20.53;52.19;102341.22;5078174;28;20024;-68
2023/05/29 10:42:45;;;;;;;9.70;2.63;;;;;;;20.33;51.71;102344.47;5068175;28;20676;-68
2023/05/29 10:45:12;;;;;;;7.68;2.20;;;;;;;20.43;51.83;102348.13;5061842;28;20040;-68
2023/05/29 10:47:38;;;;;;;7.82;2.30;;;;;;;20.44;51.46;102339.34;5074170;28;20019;-68
2023/05/29 10:50:05;;;;;;;8.02;2.22;;;;;;;20.52;50.58;102345.59;5088278;28;20111;-69
2023/05/29 10:52:34;;;;;;;6.57;2.55;;;;;;;20.34;51.21;102342.72;5067890;28;20601;-68
2023/05/29 10:55:00;;;;;;;7.55;2.42;;;;;;;20.33;50.04;102346.22;5080947;28;20039;-68
2023/05/29 10:57:26;;;;;;;5.10;1.88;;;;;;;20.35;50.40;102342.75;5075463;28;20066;-68
2023/05/29 11:00:14;;;;;;;10.13;2.53;;;;;;;20.44;48.98;102342.00;5073998;28;20056;-68
2023/05/29 11:02:40;;;;;;;4.38;1.83;;;;;;;20.34;48.82;102341.00;5088016;28;20372;-68
2023/05/29 11:05:19;;;;;;;8.63;2.10;;;;;;;20.47;49.81;102341.16;5078006;28;20043;-68
2023/05/29 11:07:57;;;;;;;8.50;2.50;;;;;;;20.55;49.48;102339.50;5107848;28;20421;-68
2023/05/29 11:10:55;;;;;;;5.47;1.83;;;;;;;20.66;49.86;102333.50;5068056;28;20024;-68
2023/05/29 11:13:25;;;;;;;5.22;1.58;;;;;;;20.69;49.20;102325.63;5067959;28;20369;-69
2023/05/29 11:16:18;;;;;;;6.57;2.40;;;;;;;20.78;48.78;102331.03;5067532;28;20020;-69